Highlands, Washington
Current Conditions -  °F | °C
As of 3:53 AM on Friday 28 Nov 2014 (Local Time) from KRNT Reporting Station
Light Rain Light Rain  
Wind Chill: 56°   Ceiling: 2500
Heat Index: 56°   Visibility: 10mi
Dew Point: 50°   Wind: 13mph
Humidity: 80%   Direction: 160°SSE
Pressure: 29.61"   Gusts: NA
Location:  47.5152°N, 122.184°W
Report Text: KRNT 281153Z AUTO 16011KT 10SM -RA BKN025 BKN041 OVC050 13/10 A2961 RMK AO2 RAB30 SLP030 P0000 60004 70014 T01330100 10139 20128 58020
Loading
Personal Weather Stations






























Interactive Weather Map New forecast layout! Learn more

10-Day Weather Forecast

Advertisements
Track Severe Weather on mobile